createdAt,value
2019-03-31T00:02:20.780Z,9.20
2019-03-31T00:04:57.840Z,9.20
2019-03-31T00:07:27.788Z,8.90
2019-03-31T00:10:10.915Z,8.80
2019-03-31T00:12:47.050Z,8.70
2019-03-31T00:15:23.862Z,8.70
2019-03-31T00:17:53.825Z,8.50
2019-03-31T00:20:24.084Z,8.50
2019-03-31T00:23:00.144Z,8.40
2019-03-31T00:25:30.046Z,8.30
2019-03-31T00:27:59.865Z,8.30
2019-03-31T00:30:36.770Z,8.20
2019-03-31T00:33:06.629Z,8.20
2019-03-31T00:35:36.496Z,8.20
2019-03-31T00:38:12.743Z,8.40
2019-03-31T00:40:49.302Z,8.30
2019-03-31T00:43:25.406Z,8.40
2019-03-31T00:45:55.431Z,8.40
2019-03-31T00:48:25.713Z,8.50
2019-03-31T00:51:02.035Z,8.80
2019-03-31T00:53:32.004Z,8.70
2019-03-31T00:56:01.862Z,8.60
2019-03-31T00:58:39.978Z,8.70
2019-03-31T01:01:36.250Z,8.80
2019-03-31T01:04:06.640Z,9.00
2019-03-31T01:06:37.002Z,8.80
2019-03-31T01:09:26.819Z,8.80
2019-03-31T01:12:03.257Z,8.70
2019-03-31T01:14:45.432Z,8.90
2019-03-31T01:17:18.660Z,8.90
2019-03-31T01:19:47.292Z,9.00
2019-03-31T01:22:24.238Z,9.10
2019-03-31T01:24:54.443Z,9.10
2019-03-31T01:27:24.392Z,9.10
2019-03-31T01:30:01.307Z,9.00
2019-03-31T01:32:32.419Z,8.90
2019-03-31T01:35:03.086Z,9.00
2019-03-31T01:37:39.851Z,9.00
2019-03-31T01:40:10.360Z,9.00
2019-03-31T01:42:54.329Z,9.10
2019-03-31T01:45:24.002Z,9.10
2019-03-31T01:47:53.629Z,8.90
2019-03-31T01:50:30.597Z,8.80
2019-03-31T01:53:00.400Z,8.80
2019-03-31T01:55:30.238Z,8.70
2019-03-31T01:58:06.848Z,8.60
2019-03-31T02:00:45.354Z,8.50
2019-03-31T02:03:21.635Z,8.60
2019-03-31T02:05:51.307Z,8.60
2019-03-31T02:08:21.137Z,8.60
2019-03-31T02:10:57.483Z,8.60
2019-03-31T02:13:33.638Z,8.40
2019-03-31T02:16:09.962Z,8.40
2019-03-31T02:18:39.805Z,8.30
2019-03-31T02:21:09.729Z,8.20
2019-03-31T02:23:46.383Z,8.20
2019-03-31T02:26:16.343Z,8.10
2019-03-31T02:28:46.175Z,8.10
2019-03-31T02:31:22.364Z,8.10
2019-03-31T02:33:52.175Z,8.10
2019-03-31T02:36:22.040Z,8.10
2019-03-31T02:38:58.498Z,8.10
2019-03-31T02:41:28.383Z,8.10
2019-03-31T02:44:11.832Z,8.10
2019-03-31T02:46:41.764Z,8.00
2019-03-31T02:49:11.631Z,7.90
2019-03-31T02:51:48.004Z,7.70
2019-03-31T02:54:18.093Z,7.70
2019-03-31T02:56:47.845Z,7.70
2019-03-31T02:59:26.131Z,7.70
2019-03-31T03:01:57.794Z,7.70
2019-03-31T03:04:36.481Z,7.70
2019-03-31T03:07:08.125Z,7.70
2019-03-31T03:09:45.933Z,7.70
2019-03-31T03:12:24.517Z,7.60
2019-03-31T03:15:10.391Z,7.60
2019-03-31T03:17:40.231Z,7.50
2019-03-31T03:20:10.154Z,7.40
2019-03-31T03:22:47.449Z,7.20
2019-03-31T03:25:17.346Z,7.30
2019-03-31T03:27:47.241Z,7.10
2019-03-31T03:30:23.491Z,7.10
2019-03-31T03:33:13.476Z,7.00
2019-03-31T03:35:24.905Z,6.90
2019-03-31T03:38:01.761Z,7.20
2019-03-31T03:40:31.704Z,7.00
2019-03-31T03:43:01.568Z,7.00
2019-03-31T03:45:44.823Z,7.00
2019-03-31T03:48:14.749Z,6.90
2019-03-31T03:50:44.583Z,7.10
2019-03-31T03:53:20.863Z,7.20
2019-03-31T03:55:50.793Z,7.10
2019-03-31T03:58:20.560Z,7.10
2019-03-31T04:00:57.602Z,7.10
2019-03-31T04:03:30.869Z,7.00
2019-03-31T04:05:58.594Z,7.10
2019-03-31T04:08:34.623Z,7.00
2019-03-31T04:11:30.493Z,7.10
2019-03-31T04:14:12.860Z,7.00
2019-03-31T04:16:49.371Z,6.90
2019-03-31T04:19:25.827Z,6.90
2019-03-31T04:21:55.647Z,6.90
2019-03-31T04:24:25.555Z,6.80
2019-03-31T04:27:02.299Z,6.80
2019-03-31T04:29:32.475Z,6.70
2019-03-31T04:32:02.133Z,6.60
2019-03-31T04:34:38.869Z,6.60
2019-03-31T04:37:08.725Z,6.60
2019-03-31T04:39:39.419Z,6.60
2019-03-31T04:42:16.606Z,6.50
2019-03-31T04:44:46.187Z,6.50
2019-03-31T04:47:30.062Z,6.40
2019-03-31T04:49:59.993Z,6.40
2019-03-31T04:52:29.826Z,6.40
2019-03-31T04:55:06.579Z,6.30
2019-03-31T04:57:36.488Z,6.30
2019-03-31T05:00:06.583Z,6.30
2019-03-31T05:02:42.850Z,6.20
2019-03-31T05:05:12.836Z,6.10
2019-03-31T05:07:42.705Z,6.10
2019-03-31T05:10:19.074Z,6.10
2019-03-31T05:12:55.111Z,6.00
2019-03-31T05:15:38.131Z,6.00
2019-03-31T05:18:08.349Z,6.00
2019-03-31T05:20:38.211Z,6.00
2019-03-31T05:23:14.973Z,6.00
2019-03-31T05:25:44.870Z,6.00
2019-03-31T05:28:14.676Z,6.10
2019-03-31T05:30:50.954Z,6.10
2019-03-31T05:33:21.123Z,6.10
2019-03-31T05:35:50.957Z,6.00
2019-03-31T05:38:27.211Z,6.00
2019-03-31T05:40:57.053Z,6.00
2019-03-31T05:43:26.916Z,6.00
2019-03-31T05:46:03.794Z,6.00
2019-03-31T05:48:40.733Z,6.10
2019-03-31T05:51:17.501Z,6.10
2019-03-31T05:53:47.530Z,6.20
2019-03-31T05:56:17.373Z,6.20
2019-03-31T05:58:54.186Z,6.20
2019-03-31T06:01:49.656Z,6.30
2019-03-31T06:04:33.689Z,6.40
2019-03-31T06:07:03.479Z,6.40
2019-03-31T06:09:33.166Z,6.50
2019-03-31T06:12:09.815Z,6.50
2019-03-31T06:14:39.649Z,6.50
2019-03-31T06:17:09.078Z,6.60
2019-03-31T06:19:45.306Z,6.70
2019-03-31T06:22:15.164Z,6.80
2019-03-31T06:24:44.668Z,6.80
2019-03-31T06:27:21.749Z,6.90
2019-03-31T06:29:51.612Z,7.00
2019-03-31T06:32:21.274Z,7.10
2019-03-31T06:34:58.198Z,7.30
2019-03-31T06:37:28.649Z,7.30
2019-03-31T06:39:58.479Z,7.40
2019-03-31T06:42:35.003Z,7.60
2019-03-31T06:45:04.982Z,7.60
2019-03-31T06:47:34.803Z,7.90
2019-03-31T06:50:18.282Z,7.90
2019-03-31T06:52:47.938Z,8.10
2019-03-31T06:55:17.695Z,8.10
2019-03-31T06:57:54.345Z,8.20
2019-03-31T07:00:24.109Z,8.00
2019-03-31T07:03:06.539Z,8.10
2019-03-31T07:05:43.157Z,8.20
2019-03-31T07:08:19.085Z,8.20
2019-03-31T07:10:48.593Z,8.50
2019-03-31T07:13:18.571Z,8.40
2019-03-31T07:15:54.785Z,8.30
2019-03-31T07:18:24.564Z,8.40
2019-03-31T07:20:54.423Z,8.50
2019-03-31T07:23:31.386Z,8.50
2019-03-31T07:26:01.113Z,8.60
2019-03-31T07:28:30.890Z,8.80
2019-03-31T07:31:07.026Z,8.90
2019-03-31T07:33:36.853Z,8.80
2019-03-31T07:36:06.853Z,8.80
2019-03-31T07:38:43.049Z,8.90
2019-03-31T07:41:13.485Z,8.90
2019-03-31T07:43:43.497Z,8.80
2019-03-31T07:46:19.818Z,8.90
2019-03-31T07:48:49.779Z,9.00
2019-03-31T07:51:40.270Z,8.90
2019-03-31T07:54:10.304Z,8.80
2019-03-31T07:56:47.190Z,8.80
2019-03-31T07:59:16.986Z,8.50
2019-03-31T08:01:46.891Z,8.60
2019-03-31T08:04:24.122Z,8.50
2019-03-31T08:06:59.991Z,8.60
2019-03-31T08:09:36.882Z,8.70
2019-03-31T08:12:07.309Z,8.80
2019-03-31T08:14:36.875Z,8.70
2019-03-31T08:17:13.096Z,8.90
2019-03-31T08:19:42.721Z,9.00
2019-03-31T08:22:12.462Z,8.90
2019-03-31T08:24:51.976Z,9.10
2019-03-31T08:27:22.018Z,9.50
2019-03-31T08:30:00.068Z,9.80
2019-03-31T08:32:30.232Z,10.00
2019-03-31T08:35:00.092Z,10.30
2019-03-31T08:37:29.960Z,10.30
2019-03-31T08:40:05.992Z,10.10
2019-03-31T08:42:35.823Z,9.80
2019-03-31T08:45:06.206Z,9.90
2019-03-31T08:47:42.484Z,9.80
2019-03-31T08:50:12.401Z,9.60
2019-03-31T08:52:55.465Z,9.40
2019-03-31T08:55:24.993Z,9.60
2019-03-31T08:57:54.779Z,9.80
2019-03-31T09:00:49.253Z,9.80
2019-03-31T09:03:25.642Z,9.70
2019-03-31T09:06:08.452Z,9.70
2019-03-31T09:08:37.963Z,9.90
2019-03-31T09:11:07.577Z,9.80
2019-03-31T09:13:44.280Z,9.90
2019-03-31T09:16:13.756Z,9.90
2019-03-31T09:18:43.562Z,10.00
2019-03-31T09:21:20.042Z,9.90
2019-03-31T09:23:49.950Z,9.60
2019-03-31T09:26:19.847Z,9.60
2019-03-31T09:28:56.062Z,9.50
2019-03-31T09:31:25.848Z,9.60
2019-03-31T09:33:55.362Z,9.50
2019-03-31T09:36:31.494Z,9.40
2019-03-31T09:39:01.299Z,9.30
2019-03-31T09:41:31.060Z,9.30
2019-03-31T09:44:07.631Z,9.20
2019-03-31T09:46:37.442Z,9.10
2019-03-31T09:49:07.303Z,9.10
2019-03-31T09:51:44.244Z,9.00
2019-03-31T09:54:21.106Z,9.00
2019-03-31T09:56:57.654Z,8.80
2019-03-31T09:59:27.593Z,8.70
2019-03-31T10:01:57.433Z,8.70
2019-03-31T10:04:33.869Z,8.70
2019-03-31T10:07:10.298Z,8.60
2019-03-31T10:09:47.011Z,8.60
2019-03-31T10:12:16.756Z,8.70
2019-03-31T10:14:46.603Z,8.70
2019-03-31T10:17:23.358Z,8.70
2019-03-31T10:19:53.225Z,8.90
2019-03-31T10:22:23.470Z,9.10
2019-03-31T10:24:59.707Z,9.20
2019-03-31T10:27:29.610Z,9.20
2019-03-31T10:30:00.643Z,9.20
2019-03-31T10:32:36.553Z,9.60
2019-03-31T10:35:07.558Z,9.50
2019-03-31T10:37:37.471Z,9.50
2019-03-31T10:40:16.382Z,9.20
2019-03-31T10:42:46.165Z,9.30
2019-03-31T10:45:15.865Z,9.40
2019-03-31T10:47:52.853Z,9.40
2019-03-31T10:50:22.929Z,9.40
2019-03-31T10:52:52.921Z,9.50
2019-03-31T10:55:35.790Z,9.50
2019-03-31T10:58:05.519Z,9.60
2019-03-31T11:00:36.360Z,9.40
2019-03-31T11:03:14.089Z,9.50
2019-03-31T11:05:50.646Z,9.60
2019-03-31T11:08:33.516Z,10.30
2019-03-31T11:11:03.358Z,11.30
2019-03-31T11:13:33.292Z,11.40
2019-03-31T11:16:09.973Z,12.10
2019-03-31T11:18:39.767Z,12.30
2019-03-31T11:21:22.878Z,12.80
2019-03-31T11:23:52.784Z,13.40
2019-03-31T11:26:22.710Z,13.30
2019-03-31T11:28:58.843Z,13.30
2019-03-31T11:31:28.668Z,12.90
2019-03-31T11:33:58.382Z,12.50
2019-03-31T11:36:35.011Z,12.30
2019-03-31T11:39:06.875Z,12.40
2019-03-31T11:41:36.763Z,13.50
2019-03-31T11:44:12.972Z,14.00
2019-03-31T11:46:42.812Z,14.50
2019-03-31T11:49:12.410Z,15.10
2019-03-31T11:51:48.747Z,14.60
2019-03-31T11:54:18.572Z,14.80
2019-03-31T11:57:01.879Z,15.10
2019-03-31T11:59:31.825Z,14.20
2019-03-31T12:02:01.907Z,14.10
2019-03-31T12:04:38.624Z,13.80
2019-03-31T12:07:27.234Z,13.80
2019-03-31T12:09:59.178Z,14.20
2019-03-31T12:12:29.167Z,14.10
2019-03-31T12:15:00.558Z,14.20
2019-03-31T12:17:37.152Z,14.50
2019-03-31T12:20:07.389Z,15.10
2019-03-31T12:22:37.346Z,15.50
2019-03-31T12:25:14.679Z,15.60
2019-03-31T12:27:44.685Z,15.80
2019-03-31T12:30:23.519Z,15.30
2019-03-31T12:32:53.449Z,15.00
2019-03-31T12:35:23.368Z,15.50
2019-03-31T12:37:59.440Z,15.50
2019-03-31T12:40:33.678Z,15.80
2019-03-31T12:43:10.326Z,16.00
2019-03-31T12:45:43.000Z,15.40
2019-03-31T12:48:11.751Z,15.80
2019-03-31T12:50:47.920Z,15.30
2019-03-31T12:53:17.731Z,14.90
2019-03-31T12:55:59.403Z,14.90
2019-03-31T12:58:32.977Z,15.40
2019-03-31T13:01:02.871Z,15.90
2019-03-31T13:03:33.944Z,16.20
2019-03-31T13:06:10.359Z,16.30
2019-03-31T13:08:46.557Z,16.70
2019-03-31T13:11:30.510Z,16.20
2019-03-31T13:14:00.433Z,16.30
2019-03-31T13:16:30.770Z,16.10
2019-03-31T13:19:06.767Z,16.30
2019-03-31T13:21:36.644Z,16.60
2019-03-31T13:24:06.480Z,15.90
2019-03-31T13:26:42.547Z,15.80
2019-03-31T13:29:12.408Z,15.50
2019-03-31T13:31:42.282Z,15.30
2019-03-31T13:34:19.486Z,15.60
2019-03-31T13:36:49.379Z,15.60
2019-03-31T13:39:19.337Z,15.80
2019-03-31T13:41:56.601Z,15.60
2019-03-31T13:44:27.983Z,15.80
2019-03-31T13:46:57.848Z,15.30
2019-03-31T13:49:33.845Z,15.40
2019-03-31T13:52:03.752Z,15.70
2019-03-31T13:54:47.203Z,15.40
2019-03-31T13:57:17.399Z,15.20
2019-03-31T14:00:00.814Z,15.20
2019-03-31T14:02:30.780Z,15.00
2019-03-31T14:05:00.651Z,14.20
2019-03-31T14:07:36.672Z,14.60
2019-03-31T14:10:13.042Z,14.90
2019-03-31T14:12:49.468Z,14.70
2019-03-31T14:15:19.917Z,14.30
2019-03-31T14:17:49.846Z,14.40
2019-03-31T14:20:27.013Z,14.50
2019-03-31T14:22:59.415Z,13.80
2019-03-31T14:25:36.091Z,14.10
2019-03-31T14:28:05.995Z,14.10
2019-03-31T14:30:35.887Z,13.90
2019-03-31T14:33:12.605Z,14.00
2019-03-31T14:35:42.756Z,14.10
2019-03-31T14:38:13.760Z,13.50
2019-03-31T14:40:49.962Z,13.50
2019-03-31T14:43:20.119Z,13.50
2019-03-31T14:45:49.792Z,13.70
2019-03-31T14:48:26.318Z,13.50
2019-03-31T14:50:56.242Z,13.10
2019-03-31T14:53:26.203Z,13.10
2019-03-31T14:56:03.224Z,13.00
2019-03-31T14:58:33.096Z,13.20
2019-03-31T15:01:16.512Z,13.20
2019-03-31T15:03:46.357Z,13.10
2019-03-31T15:06:16.371Z,13.00
2019-03-31T15:08:54.678Z,12.80
2019-03-31T15:11:31.233Z,12.50
2019-03-31T15:14:08.009Z,12.40
2019-03-31T15:16:37.998Z,12.60
2019-03-31T15:19:08.810Z,12.80
2019-03-31T15:21:45.393Z,12.60
2019-03-31T15:24:15.234Z,12.40
2019-03-31T15:26:45.205Z,12.50
2019-03-31T15:29:22.016Z,12.60
2019-03-31T15:31:51.902Z,12.40
2019-03-31T15:34:21.939Z,12.30
2019-03-31T15:36:59.322Z,12.00
2019-03-31T15:39:29.279Z,12.10
2019-03-31T15:41:59.141Z,12.10
2019-03-31T15:44:35.756Z,11.80
2019-03-31T15:47:05.555Z,11.60
2019-03-31T15:49:35.426Z,11.50
2019-03-31T15:52:11.615Z,11.60
2019-03-31T15:54:41.488Z,11.30
2019-03-31T15:57:11.475Z,11.30
2019-03-31T15:59:56.916Z,11.30
2019-03-31T16:02:34.519Z,11.30
2019-03-31T16:05:12.846Z,11.30
2019-03-31T16:07:45.081Z,11.20
2019-03-31T16:10:28.022Z,11.00
2019-03-31T16:13:04.777Z,10.80
2019-03-31T16:15:41.139Z,10.90
2019-03-31T16:18:10.806Z,10.80
2019-03-31T16:20:39.876Z,10.80
2019-03-31T16:23:17.423Z,10.80
2019-03-31T16:25:51.104Z,10.70
2019-03-31T16:28:28.478Z,10.70
2019-03-31T16:30:57.857Z,10.70
2019-03-31T16:33:27.460Z,10.40
2019-03-31T16:36:03.522Z,10.30
2019-03-31T16:38:32.895Z,10.40
2019-03-31T16:41:02.058Z,10.30
2019-03-31T16:43:39.499Z,10.30
2019-03-31T16:46:08.815Z,10.10
2019-03-31T16:48:37.657Z,10.00
2019-03-31T16:51:13.185Z,10.10
2019-03-31T16:53:42.985Z,10.00
2019-03-31T16:56:12.269Z,10.00
2019-03-31T16:58:48.604Z,9.90
2019-03-31T17:01:17.904Z,9.70
2019-03-31T17:04:00.175Z,9.50
2019-03-31T17:06:29.485Z,9.50
2019-03-31T17:08:59.740Z,9.50
2019-03-31T17:11:36.570Z,9.30
2019-03-31T17:14:12.040Z,9.30
2019-03-31T17:16:47.902Z,9.20
2019-03-31T17:19:17.206Z,9.10
2019-03-31T17:21:47.421Z,9.00
2019-03-31T17:24:23.501Z,9.00
2019-03-31T17:26:52.810Z,8.80
2019-03-31T17:29:23.215Z,8.80
2019-03-31T17:32:00.544Z,8.70
2019-03-31T17:34:29.840Z,8.50
2019-03-31T17:37:02.325Z,8.40
2019-03-31T17:39:38.172Z,8.50
2019-03-31T17:42:07.024Z,8.30
2019-03-31T17:44:36.347Z,8.20
2019-03-31T17:47:12.773Z,8.10
2019-03-31T17:49:42.198Z,8.10
2019-03-31T17:52:11.517Z,7.90
2019-03-31T17:54:47.964Z,7.80
2019-03-31T17:57:18.287Z,7.80
2019-03-31T17:59:48.615Z,7.70
2019-03-31T18:02:26.688Z,7.60
2019-03-31T18:05:02.548Z,7.60
2019-03-31T18:07:38.652Z,7.50
2019-03-31T18:10:21.314Z,7.40
2019-03-31T18:12:59.362Z,7.30
2019-03-31T18:15:28.696Z,7.30
2019-03-31T18:17:58.943Z,7.10
2019-03-31T18:20:34.948Z,7.00
2019-03-31T18:23:04.455Z,7.00
2019-03-31T18:25:33.973Z,6.90
2019-03-31T18:28:09.681Z,6.90
2019-03-31T18:30:39.193Z,6.90
2019-03-31T18:33:09.813Z,6.90
2019-03-31T18:35:45.631Z,6.70
2019-03-31T18:38:15.027Z,6.60
2019-03-31T18:40:44.275Z,6.50
2019-03-31T18:43:21.028Z,6.40
2019-03-31T18:45:50.484Z,6.40
2019-03-31T18:48:19.823Z,6.30
2019-03-31T18:50:55.295Z,6.20
2019-03-31T18:53:44.667Z,6.20
2019-03-31T18:56:40.171Z,6.10
2019-03-31T18:59:46.963Z,6.00
2019-03-31T19:02:41.006Z,5.90
2019-03-31T19:05:41.308Z,5.80
2019-03-31T19:09:00.591Z,5.70
2019-03-31T19:11:54.181Z,5.60
2019-03-31T19:14:48.823Z,5.50
2019-03-31T19:17:35.631Z,5.30
2019-03-31T19:20:36.617Z,5.20
2019-03-31T19:23:27.897Z,5.10
2019-03-31T19:26:18.686Z,5.00
2019-03-31T19:29:19.980Z,4.90
2019-03-31T19:32:12.389Z,4.80
2019-03-31T19:34:48.649Z,4.80
2019-03-31T19:37:49.498Z,4.60
2019-03-31T19:40:41.657Z,4.70
2019-03-31T19:43:46.193Z,4.60
2019-03-31T19:46:31.134Z,4.50
2019-03-31T19:49:29.525Z,4.40
2019-03-31T19:52:19.923Z,4.30
2019-03-31T19:55:17.632Z,4.30
2019-03-31T19:58:04.438Z,4.20
2019-03-31T20:01:12.242Z,4.10
2019-03-31T20:03:57.447Z,4.10
2019-03-31T20:06:52.658Z,4.00
2019-03-31T20:09:47.707Z,3.80
2019-03-31T20:12:45.087Z,3.70
2019-03-31T20:15:34.951Z,3.70
2019-03-31T20:18:32.392Z,3.70
2019-03-31T20:21:08.946Z,3.70
2019-03-31T20:23:53.502Z,3.60
2019-03-31T20:26:55.296Z,3.60
2019-03-31T20:29:40.082Z,3.50
2019-03-31T20:32:26.292Z,3.40
2019-03-31T20:35:17.910Z,3.40
2019-03-31T20:38:18.083Z,3.30
2019-03-31T20:41:06.311Z,3.30
2019-03-31T20:43:53.411Z,3.20
2019-03-31T20:46:30.627Z,3.20
2019-03-31T20:49:00.442Z,3.30
2019-03-31T20:51:30.108Z,3.20
2019-03-31T20:54:06.397Z,3.00
2019-03-31T20:56:35.790Z,3.00
2019-03-31T20:59:05.422Z,2.90
2019-03-31T21:01:41.725Z,2.90
2019-03-31T21:04:11.210Z,2.80
2019-03-31T21:06:40.633Z,2.70
2019-03-31T21:09:16.798Z,2.60
2019-03-31T21:12:14.978Z,2.50
2019-03-31T21:14:50.920Z,2.50
2019-03-31T21:17:20.475Z,2.30
2019-03-31T21:19:51.323Z,2.20
2019-03-31T21:22:27.250Z,2.20
2019-03-31T21:24:56.621Z,2.10
2019-03-31T21:27:26.078Z,2.00
2019-03-31T21:30:02.526Z,1.90
2019-03-31T21:32:31.923Z,1.90
2019-03-31T21:35:01.375Z,1.80
2019-03-31T21:37:37.195Z,1.70
2019-03-31T21:40:06.935Z,1.60
2019-03-31T21:42:36.378Z,1.50
2019-03-31T21:45:12.306Z,1.40
2019-03-31T21:47:41.937Z,1.50
2019-03-31T21:50:13.141Z,1.40
2019-03-31T21:52:49.134Z,1.30
2019-03-31T21:55:18.565Z,1.30
2019-03-31T21:57:47.993Z,1.20
2019-03-31T22:00:27.512Z,1.10
2019-03-31T22:02:56.990Z,1.10
2019-03-31T22:05:26.764Z,1.10
2019-03-31T22:08:03.980Z,1.00
2019-03-31T22:10:33.451Z,1.00
2019-03-31T22:13:23.156Z,0.90
2019-03-31T22:15:52.565Z,0.90
2019-03-31T22:18:21.937Z,0.90
2019-03-31T22:20:58.244Z,0.80
2019-03-31T22:23:27.625Z,0.70
2019-03-31T22:25:56.955Z,0.60
2019-03-31T22:28:33.395Z,0.60
2019-03-31T22:31:03.371Z,0.60
2019-03-31T22:33:32.767Z,0.50
2019-03-31T22:36:26.745Z,0.50
2019-03-31T22:38:55.964Z,0.50
2019-03-31T22:41:25.257Z,0.40
2019-03-31T22:44:01.701Z,0.40
2019-03-31T22:46:30.856Z,0.60
2019-03-31T22:48:59.945Z,0.50
2019-03-31T22:51:36.232Z,0.40
2019-03-31T22:54:06.293Z,0.30
2019-03-31T22:56:35.783Z,0.40
2019-03-31T22:59:12.190Z,0.40
2019-03-31T23:01:42.100Z,0.30
2019-03-31T23:04:11.928Z,0.10
2019-03-31T23:06:47.874Z,0.10
2019-03-31T23:09:17.748Z,0.10
2019-03-31T23:11:47.537Z,0.20
2019-03-31T23:14:30.968Z,0.10
2019-03-31T23:17:07.503Z,0.00
2019-03-31T23:19:43.052Z,0.00
2019-03-31T23:22:12.819Z,0.00
2019-03-31T23:24:42.452Z,-0.20
2019-03-31T23:27:19.043Z,0.00
2019-03-31T23:29:50.319Z,-0.10
2019-03-31T23:32:20.254Z,-0.10
2019-03-31T23:34:57.016Z,-0.20
2019-03-31T23:37:26.314Z,-0.30
2019-03-31T23:39:56.178Z,-0.30
2019-03-31T23:42:32.461Z,-0.40
2019-03-31T23:45:02.006Z,-0.50
2019-03-31T23:47:31.536Z,-0.50
2019-03-31T23:50:07.645Z,-0.30
2019-03-31T23:52:37.359Z,-0.20
2019-03-31T23:55:07.367Z,-0.20
2019-03-31T23:57:50.065Z,-0.30
